createdAt,value
2018-07-13T00:02:13.425Z,99.90
2018-07-13T00:04:41.964Z,99.90
2018-07-13T00:07:10.477Z,99.90
2018-07-13T00:09:38.953Z,99.90
2018-07-13T00:12:07.472Z,99.90
2018-07-13T00:17:04.128Z,99.90
2018-07-13T00:22:00.760Z,99.90
2018-07-13T00:24:29.259Z,99.90
2018-07-13T00:29:25.901Z,99.90
2018-07-13T00:31:54.358Z,99.90
2018-07-13T00:34:22.839Z,99.90
2018-07-13T00:36:51.297Z,99.90
2018-07-13T00:39:19.756Z,99.90
2018-07-13T00:41:48.261Z,99.90
2018-07-13T00:44:16.711Z,99.90
2018-07-13T00:49:13.412Z,99.90
2018-07-13T00:51:41.873Z,99.90
2018-07-13T00:54:10.388Z,99.90
2018-07-13T00:56:38.881Z,99.90
2018-07-13T00:59:07.381Z,99.90
2018-07-13T01:01:35.873Z,99.90
2018-07-13T01:06:32.516Z,99.90
2018-07-13T01:09:00.981Z,99.90
2018-07-13T01:11:29.477Z,99.90
2018-07-13T01:13:57.967Z,99.90
2018-07-13T01:16:26.464Z,99.90
2018-07-13T01:18:54.945Z,99.90
2018-07-13T01:26:19.724Z,99.90
2018-07-13T01:28:48.361Z,99.90
2018-07-13T01:31:16.972Z,99.90
2018-07-13T01:33:45.461Z,99.90
2018-07-13T01:36:14.000Z,99.90
2018-07-13T01:38:42.469Z,99.90
2018-07-13T01:41:10.960Z,99.90
2018-07-13T01:48:35.741Z,99.90
2018-07-13T01:51:04.248Z,99.90
2018-07-13T01:53:32.716Z,99.90
2018-07-13T01:56:01.184Z,99.90
2018-07-13T01:58:29.876Z,99.90
2018-07-13T02:00:58.337Z,99.90
2018-07-13T02:03:26.848Z,99.90
2018-07-13T02:05:55.312Z,99.90
2018-07-13T02:08:23.804Z,99.90
2018-07-13T02:10:52.293Z,99.90
2018-07-13T02:13:20.752Z,99.90
2018-07-13T02:15:49.240Z,99.90
2018-07-13T02:18:17.692Z,99.90
2018-07-13T02:20:46.176Z,99.90
2018-07-13T02:23:15.094Z,99.90
2018-07-13T02:25:43.632Z,99.90
2018-07-13T02:28:12.185Z,99.90
2018-07-13T02:30:40.709Z,99.90
2018-07-13T02:33:09.276Z,99.90
2018-07-13T02:40:34.158Z,99.90
2018-07-13T02:43:02.655Z,99.90
2018-07-13T02:45:31.186Z,99.90
2018-07-13T02:47:59.683Z,99.90
2018-07-13T02:50:28.185Z,99.90
2018-07-13T02:52:56.653Z,99.90
2018-07-13T02:55:25.117Z,99.90
2018-07-13T02:57:53.596Z,99.90
2018-07-13T03:00:22.060Z,99.90
2018-07-13T03:05:18.781Z,99.90
2018-07-13T03:07:47.309Z,99.90
2018-07-13T03:10:15.793Z,99.90
2018-07-13T03:12:44.368Z,99.90
2018-07-13T03:17:41.125Z,99.90
2018-07-13T03:20:09.680Z,99.90
2018-07-13T03:22:38.308Z,99.90
2018-07-13T03:25:06.924Z,99.90
2018-07-13T03:27:35.416Z,99.90
2018-07-13T03:30:04.027Z,99.90
2018-07-13T03:32:32.537Z,99.90
2018-07-13T03:35:01.117Z,99.90
2018-07-13T03:37:29.601Z,99.90
2018-07-13T03:39:58.129Z,99.90
2018-07-13T03:42:26.648Z,99.90
2018-07-13T03:47:23.361Z,99.90
2018-07-13T03:49:51.852Z,99.90
2018-07-13T03:52:20.524Z,99.90
2018-07-13T03:54:48.987Z,99.90
2018-07-13T03:57:17.751Z,99.90
2018-07-13T04:04:42.565Z,99.90
2018-07-13T04:09:39.300Z,99.90
2018-07-13T04:12:07.811Z,99.90
2018-07-13T04:22:00.841Z,99.90
2018-07-13T04:24:29.392Z,99.90
2018-07-13T04:34:22.434Z,99.90
2018-07-13T04:36:50.973Z,99.90
2018-07-13T04:44:15.852Z,99.90
2018-07-13T04:46:44.432Z,99.90
2018-07-13T04:49:12.984Z,99.90
2018-07-13T04:54:09.756Z,99.90
2018-07-13T04:56:38.294Z,99.90
2018-07-13T04:59:06.872Z,99.90
2018-07-13T05:01:35.469Z,99.90
2018-07-13T05:04:04.057Z,99.90
2018-07-13T05:06:32.641Z,99.90
2018-07-13T05:09:01.334Z,99.90
2018-07-13T05:11:29.833Z,99.90
2018-07-13T05:16:26.612Z,99.90
2018-07-13T05:18:55.135Z,99.90
2018-07-13T05:21:23.821Z,99.90
2018-07-13T05:23:52.304Z,99.90
2018-07-13T05:26:20.940Z,99.90
2018-07-13T05:28:49.800Z,99.90
2018-07-13T05:33:46.566Z,99.90
2018-07-13T05:38:43.296Z,99.90
2018-07-13T05:41:12.845Z,99.90
2018-07-13T05:43:41.429Z,99.90
2018-07-13T05:46:09.996Z,99.90
2018-07-13T05:51:07.960Z,99.90
2018-07-13T05:53:36.772Z,99.90
2018-07-13T05:58:34.077Z,99.90
2018-07-13T06:01:02.667Z,99.90
2018-07-13T06:03:31.260Z,99.90
2018-07-13T06:05:59.848Z,99.90
2018-07-13T06:08:29.116Z,99.90
2018-07-13T06:10:57.941Z,99.90
2018-07-13T06:13:26.480Z,99.90
2018-07-13T06:15:54.972Z,99.90
2018-07-13T06:18:23.463Z,99.90
2018-07-13T06:20:51.973Z,99.90
2018-07-13T06:23:20.449Z,99.90
2018-07-13T06:25:48.953Z,99.90
2018-07-13T06:28:17.468Z,99.90
2018-07-13T06:30:46.000Z,99.90
2018-07-13T06:33:14.492Z,99.90
2018-07-13T06:35:42.980Z,99.90
2018-07-13T06:38:11.518Z,99.90
2018-07-13T06:40:40.076Z,99.90
2018-07-13T06:43:08.859Z,99.90
2018-07-13T06:48:07.856Z,99.90
2018-07-13T06:50:37.699Z,99.90
2018-07-13T06:53:06.776Z,99.90
2018-07-13T07:00:57.752Z,99.90
2018-07-13T07:03:27.320Z,99.90
2018-07-13T07:06:17.544Z,99.90
2018-07-13T07:08:47.544Z,99.90
2018-07-13T07:11:16.792Z,99.90
2018-07-13T07:13:46.058Z,99.90
2018-07-13T07:16:14.621Z,99.90
2018-07-13T07:18:43.188Z,99.90
2018-07-13T07:21:11.720Z,99.90
2018-07-13T07:23:40.204Z,99.90
2018-07-13T07:26:08.801Z,99.90
2018-07-13T07:28:37.311Z,99.90
2018-07-13T07:31:05.882Z,99.90
2018-07-13T07:33:34.340Z,99.90
2018-07-13T07:36:02.865Z,99.70
2018-07-13T07:38:31.391Z,99.50
2018-07-13T07:40:59.955Z,99.80
2018-07-13T07:45:56.561Z,98.90
2018-07-13T07:48:25.100Z,98.80
2018-07-13T07:50:53.576Z,98.30
2018-07-13T07:55:50.208Z,98.20
2018-07-13T07:58:18.775Z,97.30
2018-07-13T08:00:47.273Z,97.00
2018-07-13T08:03:15.745Z,96.70
2018-07-13T08:05:44.233Z,96.40
2018-07-13T08:08:12.696Z,95.50
2018-07-13T08:10:41.173Z,95.80
2018-07-13T08:13:09.629Z,96.00
2018-07-13T08:15:38.140Z,95.80
2018-07-13T08:18:06.613Z,95.00
2018-07-13T08:20:36.980Z,94.80
2018-07-13T08:23:07.849Z,94.60
2018-07-13T08:25:36.844Z,94.20
2018-07-13T08:28:05.984Z,94.00
2018-07-13T08:30:53.519Z,94.10
2018-07-13T08:33:22.011Z,93.20
2018-07-13T08:35:50.474Z,93.00
2018-07-13T08:38:19.008Z,92.30
2018-07-13T08:40:47.540Z,92.40
2018-07-13T08:43:16.049Z,92.60
2018-07-13T08:48:12.734Z,92.30
2018-07-13T08:50:41.316Z,92.60
2018-07-13T08:53:09.902Z,92.10
2018-07-13T08:55:38.489Z,92.30
2018-07-13T08:58:07.025Z,92.00
2018-07-13T09:00:35.581Z,91.30
2018-07-13T09:03:04.152Z,91.00
2018-07-13T09:05:32.629Z,91.00
2018-07-13T09:08:01.148Z,90.40
2018-07-13T09:10:29.639Z,90.40
2018-07-13T09:12:58.206Z,90.60
2018-07-13T09:15:26.721Z,90.40
2018-07-13T09:17:55.244Z,90.20
2018-07-13T09:20:23.788Z,90.40
2018-07-13T09:25:20.873Z,90.10
2018-07-13T09:27:49.349Z,88.80
2018-07-13T09:30:17.908Z,87.30
2018-07-13T09:35:14.604Z,85.30
2018-07-13T09:37:43.128Z,86.10
2018-07-13T09:40:11.609Z,87.50
2018-07-13T09:42:40.152Z,85.70
2018-07-13T09:45:08.633Z,85.40
2018-07-13T09:47:37.400Z,84.50
2018-07-13T09:50:06.009Z,84.50
2018-07-13T09:52:34.581Z,83.00
2018-07-13T09:55:03.168Z,81.00
2018-07-13T09:57:31.671Z,80.90
2018-07-13T10:00:00.169Z,81.40
2018-07-13T10:02:28.699Z,79.50
2018-07-13T10:04:57.211Z,80.20
2018-07-13T10:07:25.788Z,80.90
2018-07-13T10:09:54.257Z,79.40
2018-07-13T10:12:22.760Z,81.80
2018-07-13T10:14:51.316Z,79.60
2018-07-13T10:17:19.892Z,81.10
2018-07-13T10:19:48.416Z,78.40
2018-07-13T10:22:19.634Z,76.30
2018-07-13T10:24:49.876Z,76.00
2018-07-13T10:27:18.516Z,72.70
2018-07-13T10:32:16.684Z,70.10
2018-07-13T10:34:46.052Z,70.30
2018-07-13T10:37:14.956Z,69.10
2018-07-13T10:39:43.488Z,68.60
2018-07-13T10:44:40.153Z,69.10
2018-07-13T10:47:08.732Z,68.30
2018-07-13T10:49:37.202Z,65.00
2018-07-13T10:52:05.724Z,64.90
2018-07-13T10:54:34.196Z,62.80
2018-07-13T10:57:02.744Z,63.50
2018-07-13T10:59:31.180Z,59.30
2018-07-13T11:01:59.637Z,59.40
2018-07-13T11:04:28.132Z,57.40
2018-07-13T11:06:56.588Z,57.70
2018-07-13T11:09:25.080Z,55.10
2018-07-13T11:11:53.542Z,54.30
2018-07-13T11:14:22.001Z,53.70
2018-07-13T11:16:50.479Z,54.20
2018-07-13T11:19:18.936Z,54.30
2018-07-13T11:21:47.420Z,54.30
2018-07-13T11:24:15.944Z,53.90
2018-07-13T11:26:44.420Z,54.40
2018-07-13T11:31:41.320Z,55.30
2018-07-13T11:34:09.800Z,55.70
2018-07-13T11:36:38.337Z,55.90
2018-07-13T11:39:08.180Z,55.10
2018-07-13T11:41:36.677Z,55.30
2018-07-13T11:44:05.230Z,52.70
2018-07-13T11:46:33.680Z,52.20
2018-07-13T11:49:02.138Z,51.50
2018-07-13T11:51:30.664Z,51.40
2018-07-13T11:53:59.128Z,51.70
2018-07-13T11:56:27.589Z,50.10
2018-07-13T11:58:56.116Z,49.70
2018-07-13T12:03:52.744Z,48.80
2018-07-13T12:06:21.209Z,48.00
2018-07-13T12:08:49.664Z,49.50
2018-07-13T12:11:18.153Z,48.40
2018-07-13T12:13:46.608Z,48.10
2018-07-13T12:16:15.120Z,47.30
2018-07-13T12:18:43.592Z,44.50
2018-07-13T12:21:12.093Z,43.00
2018-07-13T12:23:40.565Z,41.10
2018-07-13T12:26:09.031Z,40.10
2018-07-13T12:28:37.531Z,38.80
2018-07-13T12:31:06.029Z,36.30
2018-07-13T12:33:34.508Z,34.50
2018-07-13T12:36:02.989Z,33.60
2018-07-13T12:38:31.460Z,35.10
2018-07-13T12:40:59.952Z,37.10
2018-07-13T12:43:28.412Z,37.40
2018-07-13T12:45:56.911Z,37.50
2018-07-13T12:48:25.376Z,37.90
2018-07-13T12:50:53.836Z,37.90
2018-07-13T12:53:22.340Z,35.70
2018-07-13T12:55:50.848Z,34.10
2018-07-13T12:58:19.364Z,32.30
2018-07-13T13:00:47.848Z,29.40
2018-07-13T13:05:44.816Z,26.30
2018-07-13T13:10:41.469Z,24.50
2018-07-13T13:13:09.929Z,24.40
2018-07-13T13:15:38.427Z,23.80
2018-07-13T13:18:06.941Z,24.40
2018-07-13T13:20:35.396Z,24.10
2018-07-13T13:23:03.950Z,23.30
2018-07-13T13:25:32.460Z,23.50
2018-07-13T13:28:00.927Z,23.90
2018-07-13T13:30:29.447Z,23.90
2018-07-13T13:32:57.926Z,24.10
2018-07-13T13:35:26.599Z,23.20
2018-07-13T13:37:55.035Z,23.30
2018-07-13T13:40:23.521Z,22.90
2018-07-13T13:45:20.172Z,24.20
2018-07-13T13:47:48.665Z,23.40
2018-07-13T13:50:17.209Z,23.60
2018-07-13T13:52:45.674Z,23.80
2018-07-13T13:55:14.205Z,24.00
2018-07-13T13:57:42.700Z,24.60
2018-07-13T14:00:11.219Z,25.60
2018-07-13T14:02:39.766Z,26.20
2018-07-13T14:05:08.663Z,27.50
2018-07-13T14:07:37.136Z,28.00
2018-07-13T14:10:05.640Z,27.80
2018-07-13T14:12:34.108Z,28.80
2018-07-13T14:17:30.793Z,29.70
2018-07-13T14:19:59.272Z,30.00
2018-07-13T14:22:27.856Z,30.80
2018-07-13T14:24:56.364Z,30.50
2018-07-13T14:27:24.868Z,30.70
2018-07-13T14:29:53.324Z,30.50
2018-07-13T14:32:21.824Z,30.60
2018-07-13T14:34:50.328Z,30.70
2018-07-13T14:37:18.828Z,31.00
2018-07-13T14:39:47.322Z,31.30
2018-07-13T14:42:15.816Z,30.90
2018-07-13T14:44:44.317Z,31.20
2018-07-13T14:47:12.927Z,31.00
2018-07-13T14:49:41.320Z,32.60
2018-07-13T14:52:09.820Z,32.00
2018-07-13T14:54:38.300Z,31.40
2018-07-13T15:02:03.132Z,33.00
2018-07-13T15:09:27.932Z,33.60
2018-07-13T15:11:56.400Z,33.50
2018-07-13T15:14:24.876Z,34.00
2018-07-13T15:16:53.376Z,34.40
2018-07-13T15:19:21.853Z,34.80
2018-07-13T15:21:50.336Z,34.90
2018-07-13T15:24:18.841Z,34.40
2018-07-13T15:29:15.469Z,35.60
2018-07-13T15:31:43.968Z,35.10
2018-07-13T15:34:12.489Z,35.00
2018-07-13T15:36:41.004Z,34.20
2018-07-13T15:39:09.756Z,34.40
2018-07-13T15:41:38.256Z,34.20
2018-07-13T15:44:06.740Z,35.10
2018-07-13T15:46:35.205Z,33.80
2018-07-13T15:49:03.737Z,34.70
2018-07-13T15:51:32.224Z,34.50
2018-07-13T15:54:00.711Z,34.30
2018-07-13T15:58:57.366Z,34.90
2018-07-13T16:01:25.886Z,34.20
2018-07-13T16:03:54.377Z,34.40
2018-07-13T16:06:22.841Z,35.10
2018-07-13T16:08:51.297Z,34.60
2018-07-13T16:13:48.336Z,34.20
2018-07-13T16:16:16.900Z,35.10
2018-07-13T16:18:45.326Z,34.80
2018-07-13T16:23:42.048Z,34.70
2018-07-13T16:26:10.533Z,34.50
2018-07-13T16:28:39.173Z,34.90
2018-07-13T16:31:07.680Z,35.20
2018-07-13T16:33:36.184Z,35.10
2018-07-13T16:36:04.668Z,34.90
2018-07-13T16:38:33.165Z,34.80
2018-07-13T16:41:01.669Z,35.20
2018-07-13T16:43:30.145Z,35.30
2018-07-13T16:48:26.768Z,34.90
2018-07-13T16:50:55.280Z,35.30
2018-07-13T16:53:23.732Z,35.50
2018-07-13T16:55:52.216Z,34.90
2018-07-13T16:58:20.700Z,34.80
2018-07-13T17:00:49.180Z,34.60
2018-07-13T17:03:18.588Z,34.90
2018-07-13T17:05:47.044Z,34.50
2018-07-13T17:08:15.546Z,34.90
2018-07-13T17:10:44.016Z,35.30
2018-07-13T17:13:12.501Z,35.30
2018-07-13T17:15:41.003Z,35.30
2018-07-13T17:20:37.666Z,35.10
2018-07-13T17:23:06.141Z,35.90
2018-07-13T17:25:34.644Z,35.30
2018-07-13T17:30:31.259Z,35.50
2018-07-13T17:32:59.797Z,35.70
2018-07-13T17:35:28.292Z,35.60
2018-07-13T17:37:56.784Z,35.80
2018-07-13T17:40:25.263Z,36.10
2018-07-13T17:42:53.859Z,36.40
2018-07-13T17:45:22.280Z,36.10
2018-07-13T17:50:18.916Z,36.20
2018-07-13T17:52:47.400Z,36.20
2018-07-13T17:55:15.860Z,36.70
2018-07-13T17:57:44.329Z,36.70
2018-07-13T18:02:40.961Z,38.20
2018-07-13T18:05:09.476Z,37.20
2018-07-13T18:07:37.973Z,37.40
2018-07-13T18:10:06.493Z,37.90
2018-07-13T18:12:35.049Z,38.20
2018-07-13T18:15:03.535Z,38.90
2018-07-13T18:17:32.043Z,39.20
2018-07-13T18:20:00.512Z,38.00
2018-07-13T18:24:57.127Z,39.80
2018-07-13T18:27:25.592Z,40.40
2018-07-13T18:29:54.100Z,40.70
2018-07-13T18:32:22.580Z,40.90
2018-07-13T18:34:51.077Z,41.70
2018-07-13T18:37:19.606Z,41.70
2018-07-13T18:39:48.076Z,41.70
2018-07-13T18:42:16.552Z,42.10
2018-07-13T18:44:45.025Z,42.20
2018-07-13T18:47:13.512Z,42.90
2018-07-13T18:49:41.969Z,43.40
2018-07-13T18:52:10.448Z,44.00
2018-07-13T18:54:38.914Z,45.20
2018-07-13T18:57:07.380Z,45.40
2018-07-13T18:59:35.881Z,45.20
2018-07-13T19:02:04.687Z,45.60
2018-07-13T19:04:33.196Z,45.80
2018-07-13T19:07:01.685Z,46.20
2018-07-13T19:09:30.149Z,46.60
2018-07-13T19:11:58.642Z,46.80
2018-07-13T19:14:27.208Z,46.90
2018-07-13T19:19:23.812Z,47.70
2018-07-13T19:21:52.291Z,48.00
2018-07-13T19:24:20.744Z,48.00
2018-07-13T19:26:49.236Z,48.40
2018-07-13T19:29:17.738Z,48.60
2018-07-13T19:31:46.197Z,48.90
2018-07-13T19:34:14.700Z,49.40
2018-07-13T19:36:43.187Z,49.60
2018-07-13T19:39:11.637Z,49.80
2018-07-13T19:41:40.136Z,50.20
2018-07-13T19:44:08.612Z,51.00
2018-07-13T19:46:37.201Z,50.60
2018-07-13T19:51:34.568Z,51.10
2018-07-13T19:54:03.202Z,51.30
2018-07-13T19:56:31.722Z,51.50
2018-07-13T19:59:00.269Z,51.60
2018-07-13T20:01:28.793Z,51.80
2018-07-13T20:03:57.368Z,52.20
2018-07-13T20:06:25.901Z,52.40
2018-07-13T20:08:54.427Z,52.50
2018-07-13T20:11:22.921Z,52.80
2018-07-13T20:13:51.376Z,53.10
2018-07-13T20:18:48.001Z,53.80
2018-07-13T20:21:16.455Z,54.60
2018-07-13T20:23:44.949Z,54.90
2018-07-13T20:26:13.423Z,54.40
2018-07-13T20:28:41.922Z,54.90
2018-07-13T20:31:10.393Z,55.10
2018-07-13T20:33:38.897Z,55.50
2018-07-13T20:36:07.380Z,56.00
2018-07-13T20:38:35.876Z,56.10
2018-07-13T20:43:32.516Z,56.40
2018-07-13T20:46:00.995Z,56.50
2018-07-13T20:48:29.475Z,56.80
2018-07-13T20:50:57.977Z,57.00
2018-07-13T20:55:54.609Z,57.30
2018-07-13T20:58:23.132Z,57.60
2018-07-13T21:00:51.592Z,57.50
2018-07-13T21:05:48.211Z,57.80
2018-07-13T21:08:16.676Z,58.00
2018-07-13T21:10:45.180Z,58.00
2018-07-13T21:13:13.642Z,58.20
2018-07-13T21:15:42.113Z,58.50
2018-07-13T21:18:10.611Z,58.80
2018-07-13T21:20:39.144Z,59.00
2018-07-13T21:23:07.691Z,59.10
2018-07-13T21:25:36.192Z,59.40
2018-07-13T21:28:04.872Z,59.60
2018-07-13T21:30:33.387Z,59.90
2018-07-13T21:33:01.844Z,59.90
2018-07-13T21:35:30.321Z,60.00
2018-07-13T21:37:58.916Z,59.80
2018-07-13T21:40:27.414Z,59.60
2018-07-13T21:42:55.904Z,59.70
2018-07-13T21:45:24.406Z,59.70
2018-07-13T21:47:52.910Z,59.80
2018-07-13T21:50:21.388Z,59.70
2018-07-13T21:52:49.888Z,60.00
2018-07-13T21:55:18.414Z,60.20
2018-07-13T21:57:46.872Z,60.50
2018-07-13T22:00:15.400Z,61.10
2018-07-13T22:02:43.864Z,61.40
2018-07-13T22:05:12.336Z,62.40
2018-07-13T22:07:40.825Z,63.00
2018-07-13T22:10:09.339Z,64.10
2018-07-13T22:12:37.824Z,64.80
2018-07-13T22:15:06.501Z,65.20
2018-07-13T22:17:34.997Z,65.90
2018-07-13T22:20:03.552Z,66.50
2018-07-13T22:22:32.053Z,67.50
2018-07-13T22:25:00.516Z,67.40
2018-07-13T22:27:28.989Z,67.50
2018-07-13T22:29:57.496Z,68.00
2018-07-13T22:32:25.977Z,68.90
2018-07-13T22:34:54.468Z,69.50
2018-07-13T22:37:22.924Z,69.50
2018-07-13T22:39:51.412Z,69.80
2018-07-13T22:42:19.884Z,70.50
2018-07-13T22:44:48.352Z,71.10
2018-07-13T22:47:16.868Z,71.20
2018-07-13T22:49:45.388Z,71.70
2018-07-13T22:52:13.880Z,72.40
2018-07-13T22:57:10.524Z,73.30
2018-07-13T22:59:38.988Z,73.50
2018-07-13T23:02:07.477Z,73.80
2018-07-13T23:04:35.984Z,74.60
2018-07-13T23:09:32.628Z,74.10
2018-07-13T23:12:01.086Z,73.60
2018-07-13T23:14:29.556Z,73.40
2018-07-13T23:16:58.068Z,73.70
2018-07-13T23:19:26.693Z,73.80
2018-07-13T23:21:55.488Z,74.10
2018-07-13T23:24:24.061Z,74.30
2018-07-13T23:26:52.697Z,74.80
2018-07-13T23:29:21.239Z,74.50
2018-07-13T23:31:49.765Z,74.50
2018-07-13T23:34:18.341Z,74.30
2018-07-13T23:36:46.841Z,73.20
2018-07-13T23:39:15.390Z,72.70
2018-07-13T23:41:43.892Z,71.10
2018-07-13T23:44:12.380Z,70.80
2018-07-13T23:46:40.888Z,70.90
2018-07-13T23:49:09.376Z,71.00
2018-07-13T23:51:37.868Z,70.40
2018-07-13T23:54:06.333Z,71.10
2018-07-13T23:59:02.940Z,74.80
